Weather History for Grafton, ND

Change the Weather History Date:

Wednesday, February 19, 2014

  Actual Average Record
Temperature  
Mean Temperature 14 °F -  
Max Temperature 24 °F 22 °F 45 °F (1982)
Min Temperature 5 °F 3 °F -45 °F (1966)
Degree Days  
Heating Degree Days 50    
Moisture  
Dew Point 14 °F    
Average Humidity 87    
Maximum Humidity 93    
Minimum Humidity 74    
Precipitation  
Precipitation 0.00 in - - ()
Sea Level Pressure  
Sea Level Pressure 29.61 in    
Wind  
Wind Speed 9 mph (NNW)    
Max Wind Speed 16 mph    
Max Gust Speed -    
Visibility 10 miles    
Events Snow    
Averages and records for this station are not official NWS values.
T = Trace of Precipitation, MM = Missing Value Source: NWS Daily Summary

Daily Weather History Graph

Daily Weather History Graph

Search for Another Location

Airport:

Trip Planner

Search our weather history database for the weather conditions in past years. The results will help you decide how hot, cold, wet, or windy it might be!

Date:

Astronomy

Feb. 19, 2014 Rise Set
Actual Time 7:29 AM CST 5:57 PM CST
Civil Twilight 6:57 AM CST 6:29 PM CST
Nautical Twilight 6:21 AM CST 7:06 PM CST
Astronomical Twilight 5:45 AM CST 7:42 PM CST
Moon 11:19 PM CST (2/19) 9:12 AM CST (2/19)
Length of Visible Light 11h 32m
Length of Day
10h 28m
Waning Gibbous, 79% of the Moon is Illuminated
Feb 19
Waning Gibbous
Feb 22
Last Quarter
Mar 1
New
Mar 8
First Quarter
Mar 16
Full

Hourly Weather History & Observations

Time (CST) Temp. Windchill Dew Point Humidity Pressure Visibility Wind Dir Wind Speed Gust Speed Precip Events Conditions
12:15 AM 17.6 °F 4.3 °F 14.0 °F 86% 29.67 in 10.0 mi West 12.7 mph - N/A   Clear
12:35 AM 17.6 °F 5.7 °F 14.0 °F 86% 29.68 in 10.0 mi West 10.4 mph - N/A   Clear
12:55 AM 15.8 °F 3.4 °F 10.4 °F 79% 29.68 in 10.0 mi West 10.4 mph - N/A   Clear
1:15 AM 14.0 °F 0.5 °F 10.4 °F 86% 29.68 in 10.0 mi WSW 11.5 mph - N/A   Clear
1:35 AM 12.2 °F 1.7 °F 10.4 °F 92% 29.68 in 10.0 mi SW 6.9 mph - N/A   Clear
1:55 AM 14.0 °F 2.0 °F 10.4 °F 86% 29.68 in 10.0 mi WSW 9.2 mph - N/A   Clear
2:15 AM 14.0 °F 2.0 °F 10.4 °F 86% 29.68 in 10.0 mi WSW 9.2 mph - N/A   Clear
2:35 AM 15.8 °F 2.7 °F 14.0 °F 93% 29.69 in 10.0 mi WSW 11.5 mph - N/A   Clear
2:55 AM 15.8 °F 2.7 °F 12.2 °F 86% 29.69 in 10.0 mi WSW 11.5 mph - N/A   Clear
3:15 AM 14.0 °F -0.8 °F 10.4 °F 86% 29.68 in 10.0 mi WSW 13.8 mph - N/A   Clear
3:35 AM 12.2 °F -1.8 °F 10.4 °F 92% 29.67 in 10.0 mi WSW 11.5 mph - N/A   Clear
3:55 AM 10.4 °F -4.8 °F 8.6 °F 92% 29.67 in 10.0 mi WSW 12.7 mph - N/A   Clear
4:15 AM 10.4 °F -2.4 °F 8.6 °F 92% 29.67 in 10.0 mi WSW 9.2 mph - N/A   Clear
4:35 AM 10.4 °F -2.4 °F 8.6 °F 92% 29.66 in 10.0 mi WSW 9.2 mph - N/A   Clear
4:55 AM 10.4 °F -4.8 °F 8.6 °F 92% 29.66 in 10.0 mi West 12.7 mph - N/A   Clear
5:15 AM 14.0 °F 2.9 °F 10.4 °F 86% 29.66 in 10.0 mi West 8.1 mph - N/A   Clear
5:35 AM 14.0 °F 1.2 °F 8.6 °F 79% 29.66 in 10.0 mi West 10.4 mph - N/A   Clear
5:55 AM 12.2 °F -1.0 °F 8.6 °F 85% 29.66 in 10.0 mi West 10.4 mph - N/A   Clear
6:15 AM 12.2 °F -0.2 °F 8.6 °F 85% 29.65 in 10.0 mi West 9.2 mph - N/A   Clear
6:35 AM 10.4 °F -1.5 °F 8.6 °F 92% 29.66 in 10.0 mi West 8.1 mph - N/A   Clear
6:55 AM 8.6 °F -3.7 °F 6.8 °F 92% 29.66 in 10.0 mi WSW 8.1 mph - N/A   Clear
7:15 AM 6.8 °F -4.8 °F 5.0 °F 92% 29.66 in 10.0 mi West 6.9 mph - N/A   Clear
7:35 AM 5.0 °F -4.1 °F 1.4 °F 85% 29.66 in 10.0 mi SW 4.6 mph - N/A   Clear
7:55 AM 5.0 °F -4.1 °F 1.4 °F 85% 29.66 in 10.0 mi SSW 4.6 mph - N/A   Clear
8:15 AM 6.8 °F - 5.0 °F 92% 29.67 in 10.0 mi Calm Calm - N/A   Clear
8:35 AM 8.6 °F -2.6 °F 6.8 °F 92% 29.66 in 10.0 mi WSW 6.9 mph - N/A   Clear
8:55 AM 8.6 °F - 6.8 °F 92% 29.66 in 10.0 mi Calm Calm - N/A   Clear
9:15 AM 8.6 °F -2.6 °F 6.8 °F 92% 29.66 in 10.0 mi SSW 6.9 mph - N/A   Clear
9:35 AM 10.4 °F 4.0 °F 6.8 °F 85% 29.67 in 10.0 mi SSW 3.5 mph - N/A   Clear
9:55 AM 12.2 °F 6.1 °F 8.6 °F 85% 29.66 in 10.0 mi SW 3.5 mph - N/A   Clear
10:15 AM 14.0 °F - 10.4 °F 86% 29.66 in 10.0 mi Calm Calm - N/A   Clear
10:35 AM 15.8 °F - 14.0 °F 93% 29.66 in 10.0 mi Calm Calm - N/A   Mostly Cloudy
10:55 AM 15.8 °F - 14.0 °F 93% 29.66 in 10.0 mi Calm Calm - N/A   Overcast
11:15 AM 15.8 °F 7.2 °F 12.2 °F 86% 29.65 in 10.0 mi ENE 5.8 mph - N/A   Scattered Clouds
11:35 AM 17.6 °F 12.3 °F 12.2 °F 79% 29.65 in 10.0 mi East 3.5 mph - N/A   Scattered Clouds
11:55 AM 17.6 °F 12.3 °F 14.0 °F 86% 29.65 in 10.0 mi ENE 3.5 mph - N/A   Overcast
12:15 PM 19.4 °F 14.3 °F 15.8 °F 86% 29.64 in 10.0 mi East 3.5 mph - N/A   Overcast
12:35 PM 19.4 °F 14.3 °F 15.8 °F 86% 29.64 in 10.0 mi East 3.5 mph - N/A   Overcast
12:55 PM 19.4 °F 12.8 °F 15.8 °F 86% 29.62 in 10.0 mi ENE 4.6 mph - N/A   Overcast
1:15 PM 21.2 °F 12.6 °F 15.8 °F 80% 29.61 in 10.0 mi ENE 6.9 mph - N/A   Mostly Cloudy
1:35 PM 23.0 °F 13.9 °F 15.8 °F 74% 29.60 in 10.0 mi ENE 8.1 mph - N/A   Partly Cloudy
1:55 PM 23.0 °F 12.4 °F 17.6 °F 80% 29.58 in 10.0 mi NE 10.4 mph - N/A   Scattered Clouds
2:15 PM 23.0 °F 13.1 °F 17.6 °F 80% 29.58 in 10.0 mi NE 9.2 mph - N/A   Mostly Cloudy
2:35 PM 21.2 °F 10.9 °F 17.6 °F 86% 29.58 in 10.0 mi ENE 9.2 mph - N/A   Scattered Clouds
2:55 PM 21.2 °F 12.6 °F 17.6 °F 86% 29.58 in 10.0 mi ENE 6.9 mph - N/A   Partly Cloudy
3:15 PM 23.0 °F 14.7 °F 17.6 °F 80% 29.58 in 9.0 mi ENE 6.9 mph - N/A   Scattered Clouds
3:35 PM 23.0 °F 13.9 °F 17.6 °F 80% 29.57 in 10.0 mi ENE 8.1 mph - N/A   Mostly Cloudy
3:55 PM 23.0 °F 14.7 °F 17.6 °F 80% 29.56 in 10.0 mi ENE 6.9 mph - N/A   Scattered Clouds
4:15 PM 23.0 °F 13.9 °F 17.6 °F 80% 29.55 in 10.0 mi NE 8.1 mph - N/A   Clear
4:35 PM 23.0 °F 15.8 °F 19.4 °F 86% 29.55 in 10.0 mi NE 5.8 mph - N/A   Clear
4:55 PM 23.0 °F 14.7 °F 19.4 °F 86% 29.55 in 10.0 mi NNE 6.9 mph - N/A   Clear
5:15 PM 23.0 °F 14.7 °F 17.6 °F 80% 29.55 in 10.0 mi North 6.9 mph - N/A   Clear
5:35 PM 23.0 °F 15.8 °F 17.6 °F 80% 29.55 in 10.0 mi North 5.8 mph - N/A   Scattered Clouds
5:55 PM 23.0 °F 14.7 °F 19.4 °F 86% 29.53 in 10.0 mi NNE 6.9 mph - N/A   Partly Cloudy
6:15 PM 23.0 °F 13.9 °F 19.4 °F 86% 29.52 in 10.0 mi North 8.1 mph - N/A   Mostly Cloudy
6:35 PM 23.0 °F 13.9 °F 19.4 °F 86% 29.52 in 10.0 mi NNE 8.1 mph - N/A   Overcast
6:55 PM 23.0 °F 15.8 °F 19.4 °F 86% 29.53 in 10.0 mi NNE 5.8 mph - N/A   Mostly Cloudy
7:15 PM 24.8 °F 17.9 °F 21.2 °F 86% 29.52 in 10.0 mi North 5.8 mph - N/A   Partly Cloudy
7:35 PM 24.8 °F 17.9 °F 21.2 °F 86% 29.52 in 10.0 mi North 5.8 mph - N/A   Partly Cloudy
7:55 PM 24.8 °F 15.3 °F 23.0 °F 93% 29.51 in 10.0 mi NE 9.2 mph - N/A   Partly Cloudy
8:15 PM 24.8 °F 17.9 °F 23.0 °F 93% 29.52 in 10.0 mi NW 5.8 mph - N/A   Clear
8:35 PM 24.8 °F 16.1 °F 21.2 °F 86% 29.51 in 10.0 mi NNW 8.1 mph - N/A   Mostly Cloudy
8:55 PM 24.8 °F 15.3 °F 21.2 °F 86% 29.50 in 10.0 mi North 9.2 mph - N/A   Overcast
9:15 PM 24.8 °F 16.9 °F 21.2 °F 86% 29.50 in 10.0 mi NNW 6.9 mph - N/A   Overcast
9:35 PM 24.8 °F 15.3 °F 21.2 °F 86% 29.50 in 10.0 mi North 9.2 mph - N/A   Overcast
9:55 PM 24.8 °F 14.6 °F 21.2 °F 86% 29.50 in 10.0 mi NNW 10.4 mph - N/A   Mostly Cloudy
10:35 PM 21.2 °F 7.3 °F 17.6 °F 86% 29.50 in 10.0 mi NNW 16.1 mph - N/A   Mostly Cloudy
10:55 PM 19.4 °F 6.0 °F 17.6 °F 93% 29.49 in 3.0 mi NNW 13.8 mph - N/A Snow Light Snow
11:15 PM 19.4 °F 6.6 °F 17.6 °F 93% 29.49 in 3.0 mi NNW 12.7 mph - N/A Snow Light Snow
11:35 PM 19.4 °F 6.0 °F 17.6 °F 93% 29.50 in 9.0 mi NW 13.8 mph - N/A Snow Light Snow
11:55 PM 19.4 °F 5.0 °F 17.6 °F 93% 29.50 in 10.0 mi NNW 16.1 mph - N/A   Overcast